Time;durP1;ratioP1;P1;durP2;ratioP2;P2;SDS_P1;SDS_P2;PMS_P1;PMS_P2;Temp;Humidity;BMP_temperature;BMP_pressure;BME280_temperature;BME280_humidity;BME280_pressure;Samples;Min_cycle;Max_cycle;Signal;HPM_P1;HPM_P2
2022/03/16 00:01:25;;;;;;;25.27;16.85;;;14.00;91.30;;;;;;5034895;28;20052;-62
2022/03/16 00:03:51;;;;;;;24.08;16.15;;;13.90;91.30;;;;;;5034957;28;20458;-62
2022/03/16 00:06:16;;;;;;;26.00;15.65;;;14.10;91.30;;;;;;5035219;28;20487;-62
2022/03/16 00:08:42;;;;;;;24.02;15.93;;;14.10;91.20;;;;;;5037303;28;20391;-62
2022/03/16 00:11:08;;;;;;;25.10;16.67;;;14.10;91.20;;;;;;5039627;28;20042;-62
2022/03/16 00:13:34;;;;;;;23.40;15.82;;;13.90;91.10;;;;;;5032392;28;20061;-61
2022/03/16 00:15:59;;;;;;;27.15;16.17;;;14.00;91.20;;;;;;5015284;28;20041;-62
2022/03/16 00:18:25;;;;;;;25.33;16.60;;;14.20;91.10;;;;;;5016279;28;20128;-63
2022/03/16 00:20:51;;;;;;;23.70;15.82;;;;;;;;;;5029743;28;20073;-64
2022/03/16 00:23:17;;;;;;;24.13;15.38;;;14.10;91.10;;;;;;5020989;28;20045;-64
2022/03/16 00:25:42;;;;;;;24.50;15.10;;;14.00;91.00;;;;;;5034695;28;20060;-63
2022/03/16 00:28:09;;;;;;;23.10;15.82;;;14.10;91.00;;;;;;5030853;28;20049;-65
2022/03/16 00:30:36;;;;;;;23.15;15.88;;;14.00;90.90;;;;;;5033590;28;20052;-65
2022/03/16 00:33:02;;;;;;;24.58;15.98;;;;;;;;;;5034404;28;20398;-66
2022/03/16 00:35:28;;;;;;;22.85;14.85;;;13.90;89.50;;;;;;5034110;28;20054;-65
2022/03/16 00:37:54;;;;;;;22.33;15.70;;;13.60;90.80;;;;;;5034355;28;20463;-65
2022/03/16 00:40:19;;;;;;;24.13;15.82;;;14.00;90.90;;;;;;5030045;28;20408;-64
2022/03/16 00:42:45;;;;;;;21.60;14.93;;;13.90;90.90;;;;;;5016507;28;20045;-66
2022/03/16 00:45:11;;;;;;;22.63;14.30;;;13.60;88.90;;;;;;5030931;28;20046;-63
2022/03/16 00:47:37;;;;;;;21.80;14.30;;;14.00;91.10;;;;;;5034230;28;20439;-63
2022/03/16 00:50:03;;;;;;;22.75;14.98;;;14.00;90.80;;;;;;5033502;28;20088;-61
2022/03/16 00:52:29;;;;;;;23.27;15.63;;;14.00;90.80;;;;;;5044159;28;20045;-62
2022/03/16 00:54:55;;;;;;;21.80;14.00;;;14.10;89.30;;;;;;5033505;28;20052;-62
2022/03/16 00:57:21;;;;;;;20.77;14.10;;;14.00;90.80;;;;;;5033268;28;20037;-65
2022/03/16 00:59:46;;;;;;;20.80;13.77;;;13.70;90.70;;;;;;5033706;28;20407;-65
2022/03/16 01:02:12;;;;;;;22.83;14.75;;;;;;;;;;5029918;28;20411;-65
2022/03/16 01:04:38;;;;;;;22.13;14.57;;;14.00;90.70;;;;;;5014482;28;20125;-61
2022/03/16 01:07:05;;;;;;;21.13;13.95;;;13.80;88.90;;;;;;5026255;28;20459;-61
2022/03/16 01:09:30;;;;;;;20.10;13.80;;;13.80;90.60;;;;;;5033860;28;20092;-62
2022/03/16 01:11:56;;;;;;;21.35;14.63;;;14.00;90.70;;;;;;5033212;28;20075;-64
2022/03/16 01:14:22;;;;;;;23.10;14.15;;;14.00;90.60;;;;;;5033584;28;20042;-61
2022/03/16 01:16:48;;;;;;;21.98;13.40;;;13.90;90.50;;;;;;5034752;28;20041;-66
2022/03/16 01:19:14;;;;;;;21.63;13.85;;;13.60;90.50;;;;;;5040814;28;20072;-65
2022/03/16 01:21:41;;;;;;;22.80;14.45;;;14.00;90.50;;;;;;5026156;28;20049;-66
2022/03/16 01:24:07;;;;;;;20.98;13.90;;;13.90;90.40;;;;;;5033058;28;20116;-62
2022/03/16 01:26:34;;;;;;;19.55;13.38;;;13.80;90.40;;;;;;5033052;28;20146;-63
2022/03/16 01:29:01;;;;;;;20.80;13.82;;;14.00;90.40;;;;;;5033339;28;20034;-62
2022/03/16 01:31:27;;;;;;;20.73;13.68;;;13.90;88.40;;;;;;5034279;28;20080;-60
2022/03/16 01:33:53;;;;;;;22.08;14.75;;;13.80;90.40;;;;;;5033294;28;20038;-61
2022/03/16 01:36:19;;;;;;;22.98;14.50;;;13.90;90.40;;;;;;5027944;28;20054;-61
2022/03/16 01:38:45;;;;;;;20.90;13.77;;;13.70;88.10;;;;;;5018340;28;20470;-61
2022/03/16 01:41:11;;;;;;;20.65;13.30;;;13.90;90.30;;;;;;5032988;28;20051;-61
2022/03/16 01:43:37;;;;;;;20.48;13.52;;;;;;;;;;5032950;28;20037;-65
2022/03/16 01:46:03;;;;;;;20.85;14.13;;;14.00;90.30;;;;;;5033313;28;20048;-61
2022/03/16 01:59:26;;;;;;;20.67;14.07;;;13.80;88.10;;;;;;4838678;29;20088;-61
2022/03/16 02:05:38;;;;;;;21.30;13.70;;;13.70;90.30;;;;;;4827092;29;20408;-65
2022/03/16 02:08:05;;;;;;;19.85;12.40;;;13.50;90.20;;;;;;4812556;29;20038;-61
2022/03/16 02:10:33;;;;;;;19.05;13.63;;;13.80;90.30;;;;;;4812067;29;20050;-65
2022/03/16 02:12:59;;;;;;;20.10;13.95;;;13.70;88.20;;;;;;4813529;29;20049;-65
2022/03/16 02:15:25;;;;;;;19.48;13.05;;;;;;;;;;4812427;29;20517;-65
2022/03/16 02:17:54;;;;;;;21.55;13.00;;;13.60;87.60;;;;;;4813070;29;20130;-65
2022/03/16 02:20:21;;;;;;;20.73;13.00;;;13.80;90.50;;;;;;4821359;29;20050;-65
2022/03/16 02:22:56;;;;;;;21.00;12.68;;;13.70;86.50;;;;;;4813212;29;20585;-64
2022/03/16 02:25:23;;;;;;;23.48;13.80;;;13.70;88.10;;;;;;4812418;29;20046;-66
2022/03/16 02:27:49;;;;;;;19.90;12.68;;;13.40;90.20;;;;;;4812718;29;20034;-66
2022/03/16 02:30:15;;;;;;;21.48;13.73;;;13.60;90.20;;;;;;4812558;29;20446;-65
2022/03/16 02:32:41;;;;;;;19.88;13.52;;;;;;;;;;4861249;29;20044;-64
2022/03/16 02:35:07;;;;;;;19.35;12.75;;;13.70;90.10;;;;;;4914297;28;20545;-65
2022/03/16 02:37:36;;;;;;;20.92;12.68;;;13.80;90.10;;;;;;5038841;28;20169;-65
2022/03/16 02:40:02;;;;;;;19.77;13.52;;;;;;;;;;5038907;28;20081;-65
2022/03/16 02:42:28;;;;;;;21.25;13.68;;;13.80;87.80;;;;;;5028764;28;20053;-66
2022/03/16 02:44:53;;;;;;;19.65;12.25;;;13.80;90.10;;;;;;5029863;28;20053;-66
2022/03/16 02:47:19;;;;;;;20.35;12.52;;;13.70;90.10;;;;;;5033728;28;20049;-65
2022/03/16 02:49:45;;;;;;;19.88;12.43;;;13.50;87.50;;;;;;5038590;28;20407;-65
2022/03/16 02:52:11;;;;;;;19.42;12.82;;;13.80;90.10;;;;;;5038424;28;20099;-65
2022/03/16 02:54:37;;;;;;;21.35;13.15;;;13.80;90.40;;;;;;5039448;28;20111;-65
2022/03/16 02:57:03;;;;;;;17.63;11.63;;;13.70;90.00;;;;;;5021664;28;20049;-65
2022/03/16 02:59:30;;;;;;;20.30;12.20;;;13.70;90.00;;;;;;5038243;28;20103;-65
2022/03/16 03:01:55;;;;;;;19.20;12.75;;;13.70;87.30;;;;;;5038267;28;20041;-64
2022/03/16 03:04:21;;;;;;;18.58;12.27;;;13.90;90.00;;;;;;5038756;28;20406;-67
2022/03/16 03:06:47;;;;;;;18.45;11.98;;;;;;;;;;5039132;28;20037;-66
2022/03/16 03:09:13;;;;;;;17.83;11.63;;;13.80;89.80;;;;;;5038559;28;20045;-67
2022/03/16 03:11:40;;;;;;;18.80;12.35;;;13.80;89.80;;;;;;5038508;28;20041;-65
2022/03/16 03:14:06;;;;;;;19.60;12.52;;;13.80;89.70;;;;;;5039026;28;20049;-66
2022/03/16 03:16:31;;;;;;;19.95;12.10;;;13.80;89.80;;;;;;5035520;28;20483;-68
2022/03/16 03:18:57;;;;;;;17.02;12.55;;;13.80;89.80;;;;;;5029704;28;20457;-65
2022/03/16 03:21:23;;;;;;;16.90;11.73;;;;;;;;;;5036276;28;20038;-65
2022/03/16 03:23:49;;;;;;;20.00;12.55;;;13.70;89.50;;;;;;5034977;28;20045;-65
2022/03/16 03:26:14;;;;;;;18.25;12.30;;;13.70;89.80;;;;;;5035834;28;20092;-65
2022/03/16 03:28:40;;;;;;;21.20;12.68;;;13.80;89.70;;;;;;5037363;28;20037;-65
2022/03/16 03:31:06;;;;;;;18.05;12.02;;;13.70;89.60;;;;;;5035463;28;20103;-65
2022/03/16 03:33:32;;;;;;;20.40;12.55;;;13.60;89.50;;;;;;5018472;28;20083;-65
2022/03/16 03:35:57;;;;;;;20.85;12.32;;;13.40;89.40;;;;;;5025482;28;20045;-65
2022/03/16 03:38:23;;;;;;;18.45;11.82;;;13.50;87.00;;;;;;5014400;28;20057;-66
2022/03/16 03:40:49;;;;;;;18.85;12.15;;;13.70;89.70;;;;;;5035334;28;20041;-65
2022/03/16 03:43:15;;;;;;;18.85;13.18;;;;;;;;;;5017517;28;20041;-65
2022/03/16 03:45:40;;;;;;;19.33;12.73;;;13.70;87.00;;;;;;5025710;28;20053;-65
2022/03/16 03:48:06;;;;;;;18.55;12.23;;;13.90;89.80;;;;;;5017632;28;20193;-67
2022/03/16 03:50:32;;;;;;;18.73;11.98;;;13.60;87.10;;;;;;5017110;28;20124;-65
2022/03/16 03:52:58;;;;;;;22.30;13.07;;;;;;;;;;4991632;28;20139;-65
2022/03/16 03:55:24;;;;;;;20.73;13.18;;;13.50;89.60;;;;;;5031230;28;20395;-64
2022/03/16 03:57:49;;;;;;;19.77;12.95;;;13.60;86.90;;;;;;5017300;28;20049;-65
2022/03/16 04:00:15;;;;;;;20.83;12.57;;;13.50;89.80;;;;;;4997348;28;20061;-65
2022/03/16 04:02:50;;;;;;;19.65;12.95;;;13.90;89.80;;;;;;5014096;28;20058;-64
2022/03/16 04:05:20;;;;;;;19.77;12.30;;;13.30;89.60;;;;;;5001453;28;20503;-64
2022/03/16 04:07:46;;;;;;;19.60;12.07;;;13.50;90.00;;;;;;5001520;28;20049;-65
2022/03/16 04:10:11;;;;;;;20.23;12.30;;;13.50;89.50;;;;;;5005302;28;20064;-65
2022/03/16 04:12:37;;;;;;;19.67;12.90;;;13.60;89.60;;;;;;4981630;28;20068;-65
2022/03/16 04:15:04;;;;;;;18.98;12.77;;;13.60;89.60;;;;;;4978057;28;20513;-64
2022/03/16 04:17:30;;;;;;;20.35;13.07;;;13.60;89.70;;;;;;5022971;28;20039;-64
2022/03/16 04:19:55;;;;;;;20.58;12.80;;;13.70;89.90;;;;;;5034725;28;20034;-65
2022/03/16 04:22:21;;;;;;;21.40;12.57;;;13.60;89.50;;;;;;5034515;28;20124;-65
2022/03/16 04:24:47;;;;;;;17.08;12.20;;;13.60;89.50;;;;;;5034297;28;20056;-65
2022/03/16 04:27:13;;;;;;;20.88;12.43;;;13.50;89.70;;;;;;5031848;28;20380;-65
2022/03/16 04:29:38;;;;;;;17.55;12.00;;;13.50;89.40;;;;;;5033599;28;20045;-64
2022/03/16 04:32:05;;;;;;;19.15;12.45;;;13.60;89.50;;;;;;5034028;28;20075;-65
2022/03/16 04:34:30;;;;;;;20.10;13.55;;;13.50;86.80;;;;;;5013733;28;20049;-65
2022/03/16 04:36:56;;;;;;;17.80;11.77;;;;;;;;;;5017534;28;20033;-65
2022/03/16 04:39:22;;;;;;;18.15;12.45;;;13.40;89.30;;;;;;5018897;28;20099;-65
2022/03/16 04:41:48;;;;;;;21.27;12.88;;;13.40;89.40;;;;;;5045801;28;20042;-65
2022/03/16 04:44:13;;;;;;;20.77;13.02;;;13.60;89.50;;;;;;5027014;28;20065;-64
2022/03/16 04:46:39;;;;;;;19.52;12.27;;;13.40;86.80;;;;;;5034767;28;20178;-65
2022/03/16 04:49:05;;;;;;;19.55;13.18;;;;;;;;;;5032067;28;20029;-65
2022/03/16 04:51:31;;;;;;;21.77;13.43;;;13.50;89.80;;;;;;5019847;28;20041;-65
2022/03/16 04:53:57;;;;;;;18.63;12.13;;;13.40;89.30;;;;;;5029254;28;20392;-64
2022/03/16 04:56:22;;;;;;;19.13;12.23;;;13.50;89.50;;;;;;5022986;28;20052;-60
2022/03/16 04:58:48;;;;;;;17.58;12.45;;;13.50;89.50;;;;;;5033828;28;20541;-61
2022/03/16 05:01:14;;;;;;;24.52;12.35;;;13.20;89.20;;;;;;5021700;28;20057;-60
2022/03/16 05:03:40;;;;;;;18.98;12.75;;;13.60;89.30;;;;;;5027201;28;20080;-60
2022/03/16 05:06:05;;;;;;;18.52;12.00;;;12.80;88.90;;;;;;5016025;28;20057;-61
2022/03/16 05:08:35;;;;;;;21.50;13.05;;;13.30;89.30;;;;;;5033418;28;20048;-61
2022/03/16 05:11:02;;;;;;;17.98;12.32;;;13.60;89.40;;;;;;5032559;28;20561;-65
2022/03/16 05:13:28;;;;;;;20.55;12.68;;;;;;;;;;5032652;28;20034;-65
2022/03/16 05:15:55;;;;;;;17.67;11.82;;;13.20;86.80;;;;;;5020629;28;20045;-65
2022/03/16 05:18:23;;;;;;;17.02;12.25;;;13.10;89.30;;;;;;5026687;28;20428;-65
2022/03/16 05:20:49;;;;;;;18.05;12.20;;;13.30;89.50;;;;;;5033226;28;20049;-60
2022/03/16 05:23:14;;;;;;;19.17;12.77;;;13.40;86.80;;;;;;5034113;28;20525;-60
2022/03/16 05:25:41;;;;;;;18.58;12.90;;;13.30;89.10;;;;;;5032718;28;20060;-64
2022/03/16 05:28:07;;;;;;;21.20;13.20;;;13.40;89.40;;;;;;5033091;28;20041;-65
2022/03/16 05:30:33;;;;;;;19.35;12.50;;;;;;;;;;5032754;28;20390;-67
2022/03/16 05:33:02;;;;;;;18.40;12.48;;;13.00;89.10;;;;;;5033655;28;20399;-65
2022/03/16 05:35:28;;;;;;;19.15;13.00;;;13.40;86.70;;;;;;5019050;28;20045;-65
2022/03/16 05:37:54;;;;;;;18.10;12.45;;;13.20;89.20;;;;;;5013940;28;20494;-64
2022/03/16 05:40:20;;;;;;;19.30;12.48;;;13.20;86.60;;;;;;5027593;28;20088;-65
2022/03/16 05:42:46;;;;;;;19.45;13.52;;;;;;;;;;5032477;28;20049;-64
2022/03/16 05:45:12;;;;;;;22.25;14.02;;;13.20;89.30;;;;;;5031855;28;20476;-65
2022/03/16 05:47:37;;;;;;;19.88;13.10;;;13.20;86.60;;;;;;5033790;28;20124;-65
2022/03/16 05:50:04;;;;;;;19.92;13.15;;;13.30;89.20;;;;;;5040229;28;20041;-65
2022/03/16 05:52:31;;;;;;;21.70;12.45;;;13.20;86.50;;;;;;5032899;28;20045;-60
2022/03/16 05:54:58;;;;;;;19.05;12.88;;;13.10;89.10;;;;;;5033217;28;20047;-61
2022/03/16 05:57:23;;;;;;;19.17;12.07;;;13.40;89.40;;;;;;5033107;28;20426;-60
2022/03/16 05:59:49;;;;;;;18.13;12.32;;;13.20;86.70;;;;;;5032947;28;20053;-61
2022/03/16 06:02:15;;;;;;;19.70;12.00;;;13.40;89.20;;;;;;5032752;28;20128;-61
2022/03/16 06:04:41;;;;;;;21.73;12.90;;;13.20;86.60;;;;;;5033035;28;20049;-61
2022/03/16 06:07:07;;;;;;;18.60;12.55;;;13.10;89.10;;;;;;5032955;28;20037;-65
2022/03/16 06:09:33;;;;;;;23.55;13.70;;;13.20;89.20;;;;;;5026861;28;20630;-65
2022/03/16 06:11:59;;;;;;;20.15;12.82;;;13.30;89.20;;;;;;5015454;28;20045;-64
2022/03/16 06:14:26;;;;;;;20.52;13.13;;;;;;;;;;5032627;28;20140;-65
2022/03/16 06:16:52;;;;;;;18.60;13.02;;;;;;;;;;5032217;28;20053;-65
2022/03/16 06:19:20;;;;;;;20.65;13.13;;;13.60;89.30;;;;;;5032850;28;20041;-65
2022/03/16 06:21:47;;;;;;;18.92;12.40;;;13.40;89.30;;;;;;5032585;28;20041;-64
2022/03/16 06:24:12;;;;;;;19.05;13.35;;;13.20;86.50;;;;;;5032172;28;20077;-64
2022/03/16 06:26:39;;;;;;;56.95;14.50;;;13.30;89.10;;;;;;5017210;28;20081;-65
2022/03/16 06:29:05;;;;;;;64.10;14.82;;;13.10;89.00;;;;;;5024868;28;20041;-65
2022/03/16 06:31:31;;;;;;;65.00;15.07;;;13.40;89.20;;;;;;5031683;28;20084;-66
2022/03/16 06:33:57;;;;;;;187.48;21.30;;;13.40;89.10;;;;;;5032503;28;20566;-66
2022/03/16 06:36:23;;;;;;;93.00;16.52;;;13.30;86.60;;;;;;5041729;28;20037;-65
2022/03/16 06:38:49;;;;;;;61.85;15.60;;;;;;;;;;5032660;28;20053;-65
2022/03/16 06:41:15;;;;;;;57.97;14.77;;;13.40;86.70;;;;;;5018189;28;20046;-65
2022/03/16 06:43:41;;;;;;;45.90;14.50;;;13.40;89.10;;;;;;5027052;28;20037;-65
2022/03/16 06:46:07;;;;;;;53.67;15.73;;;13.30;89.20;;;;;;5032361;28;20045;-65
2022/03/16 06:48:33;;;;;;;49.65;15.77;;;13.60;89.30;;;;;;5032738;28;20046;-66
2022/03/16 06:50:59;;;;;;;46.90;15.65;;;;;;;;;;5032905;28;20042;-65
2022/03/16 06:53:25;;;;;;;56.97;15.73;;;13.30;86.70;;;;;;5036335;28;20037;-64
2022/03/16 06:55:50;;;;;;;38.85;15.70;;;13.40;89.20;;;;;;5037000;28;20072;-65
2022/03/16 06:58:16;;;;;;;34.45;14.98;;;13.30;89.40;;;;;;5036726;28;20116;-65
2022/03/16 07:00:42;;;;;;;38.65;14.38;;;13.40;89.30;;;;;;5003543;28;20050;-65
2022/03/16 07:03:08;;;;;;;36.38;14.68;;;13.50;89.70;;;;;;5034413;28;20475;-66
2022/03/16 07:05:38;;;;;;;30.05;14.35;;;13.50;87.00;;;;;;5035982;28;20407;-65
2022/03/16 07:08:07;;;;;;;33.25;14.13;;;13.40;89.30;;;;;;5045483;28;20094;-63
2022/03/16 07:10:34;;;;;;;33.17;14.45;;;13.60;89.60;;;;;;5036151;28;20095;-62
2022/03/16 07:13:00;;;;;;;31.83;15.25;;;13.60;89.50;;;;;;5035982;28;20056;-61
2022/03/16 07:15:26;;;;;;;23.73;13.60;;;13.70;89.40;;;;;;5035982;28;20045;-61
2022/03/16 07:17:52;;;;;;;29.42;14.27;;;13.60;89.20;;;;;;5017499;28;20042;-61
2022/03/16 07:20:17;;;;;;;27.65;14.32;;;13.50;89.20;;;;;;5016762;28;20054;-61
2022/03/16 07:22:43;;;;;;;27.70;13.70;;;13.60;89.30;;;;;;5018022;28;20045;-61
2022/03/16 07:25:09;;;;;;;24.15;14.07;;;13.80;85.50;;;;;;5035828;28;20080;-62
2022/03/16 07:27:44;;;;;;;28.23;15.38;;;13.70;86.50;;;;;;5035561;28;20037;-62
2022/03/16 07:30:10;;;;;;;30.40;15.45;;;13.50;89.20;;;;;;5035473;28;20057;-61
2022/03/16 07:32:39;;;;;;;22.33;14.13;;;13.60;89.40;;;;;;5035232;28;20045;-61
2022/03/16 07:35:11;;;;;;;22.25;13.52;;;13.70;89.40;;;;;;5034002;28;20045;-62
2022/03/16 07:37:38;;;;;;;24.48;14.65;;;13.90;89.50;;;;;;5035554;28;20395;-62
2022/03/16 07:40:04;;;;;;;23.77;13.48;;;13.90;89.20;;;;;;5035102;28;20057;-61
2022/03/16 07:42:30;;;;;;;23.08;14.20;;;13.70;89.00;;;;;;5035284;28;20092;-61
2022/03/16 07:44:57;;;;;;;26.13;14.45;;;13.80;89.00;;;;;;5028166;28;20123;-61
2022/03/16 07:47:25;;;;;;;26.02;14.48;;;13.80;86.60;;;;;;5026918;28;20042;-64
2022/03/16 07:49:51;;;;;;;23.75;14.90;;;14.00;89.20;;;;;;5030639;28;20046;-61
2022/03/16 07:52:17;;;;;;;23.85;14.27;;;13.70;89.20;;;;;;5032812;28;20037;-61
2022/03/16 07:54:43;;;;;;;23.20;14.43;;;13.80;89.10;;;;;;5035752;28;20047;-60
2022/03/16 07:57:09;;;;;;;24.73;14.10;;;13.70;89.10;;;;;;5033217;28;20041;-61
2022/03/16 07:59:35;;;;;;;22.63;14.68;;;13.70;86.60;;;;;;5031578;28;20057;-61
2022/03/16 08:02:01;;;;;;;23.35;14.98;;;14.20;89.50;;;;;;5031368;28;20414;-63
2022/03/16 08:04:27;;;;;;;23.42;14.45;;;13.50;89.10;;;;;;5035201;28;20099;-62
2022/03/16 08:06:53;;;;;;;21.67;14.60;;;13.80;89.10;;;;;;5033724;28;20068;-62
2022/03/16 08:09:18;;;;;;;26.15;15.38;;;13.80;89.10;;;;;;5044089;28;20048;-61
2022/03/16 08:11:44;;;;;;;24.73;14.27;;;;;;;;;;5033964;28;20041;-63
2022/03/16 08:14:12;;;;;;;25.00;15.40;;;14.10;88.00;;;;;;5032712;28;20103;-63
2022/03/16 08:16:38;;;;;;;23.67;14.63;;;14.10;89.10;;;;;;5022081;28;20045;-63
2022/03/16 08:19:04;;;;;;;23.23;15.18;;;14.10;89.00;;;;;;5035314;28;20129;-61
2022/03/16 08:21:30;;;;;;;25.92;15.93;;;;;;;;;;5014548;28;20180;-66
2022/03/16 08:23:56;;;;;;;22.77;14.63;;;;;;;;;;4999019;28;20042;-64
2022/03/16 08:26:24;;;;;;;26.27;15.57;;;;;;;;;;5032584;28;20426;-64
2022/03/16 08:28:50;;;;;;;23.40;15.10;;;14.40;89.10;;;;;;5015006;28;20128;-61
2022/03/16 08:31:17;;;;;;;22.88;15.52;;;14.30;89.00;;;;;;5022283;28;20135;-63
2022/03/16 08:33:43;;;;;;;24.20;15.45;;;14.50;89.10;;;;;;5035287;28;20057;-62
2022/03/16 08:36:10;;;;;;;24.10;15.10;;;;;;;;;;5032648;28;20049;-63
2022/03/16 08:38:40;;;;;;;24.95;16.15;;;14.50;89.30;;;;;;5033153;28;20491;-63
2022/03/16 08:41:06;;;;;;;23.02;16.08;;;14.80;89.60;;;;;;5031443;28;20052;-61
2022/03/16 08:43:33;;;;;;;21.40;15.07;;;14.70;89.20;;;;;;5030066;28;20116;-63
2022/03/16 08:45:59;;;;;;;25.20;16.35;;;14.70;89.10;;;;;;5032850;28;20107;-62
2022/03/16 08:48:25;;;;;;;25.20;16.33;;;;;;;;;;5032413;28;20037;-66
2022/03/16 08:50:51;;;;;;;24.58;16.58;;;15.00;89.20;;;;;;5022664;28;20037;-62
2022/03/16 08:53:17;;;;;;;24.50;16.85;;;15.00;86.80;;;;;;5034593;28;20033;-65
2022/03/16 08:55:43;;;;;;;26.30;16.67;;;;;;;;;;5032946;28;20487;-67
2022/03/16 08:58:09;;;;;;;25.65;16.58;;;;;;;;;;5011245;28;20045;-67
2022/03/16 09:00:37;;;;;;;25.65;17.95;;;15.10;86.60;;;;;;5032527;28;20104;-62
2022/03/16 09:03:03;;;;;;;26.40;17.77;;;14.90;89.70;;;;;;5034391;28;20057;-61
2022/03/16 09:05:28;;;;;;;25.30;17.88;;;15.00;90.00;;;;;;5032370;28;20065;-61
2022/03/16 09:07:54;;;;;;;27.92;19.10;;;15.00;89.80;;;;;;5034205;28;20052;-61
2022/03/16 09:10:20;;;;;;;28.80;19.15;;;15.00;90.00;;;;;;5013808;28;20499;-62
2022/03/16 09:12:46;;;;;;;28.60;18.80;;;14.70;89.80;;;;;;5034267;28;20053;-64
2022/03/16 09:15:12;;;;;;;27.85;18.73;;;15.20;90.00;;;;;;5029590;28;20653;-62
2022/03/16 09:17:38;;;;;;;27.73;18.17;;;15.30;90.20;;;;;;5037675;28;20037;-60
2022/03/16 09:20:06;;;;;;;28.35;18.98;;;15.30;90.00;;;;;;5039708;28;20076;-61
2022/03/16 09:22:32;;;;;;;26.95;19.08;;;15.20;90.10;;;;;;5031459;28;20064;-65
2022/03/16 09:24:58;;;;;;;30.67;20.08;;;15.40;90.10;;;;;;5031360;28;20561;-61
2022/03/16 09:27:24;;;;;;;32.00;19.67;;;15.30;90.20;;;;;;5029961;28;20041;-60
2022/03/16 09:29:50;;;;;;;30.63;19.98;;;15.50;90.10;;;;;;5026736;28;20046;-61
2022/03/16 09:32:16;;;;;;;28.42;19.08;;;15.40;90.10;;;;;;5026497;28;20048;-68
2022/03/16 09:34:42;;;;;;;28.98;19.92;;;15.80;90.20;;;;;;5014095;28;20403;-62
2022/03/16 09:37:09;;;;;;;31.42;19.60;;;15.60;90.30;;;;;;5023471;28;20046;-61
2022/03/16 09:39:36;;;;;;;31.10;20.38;;;15.50;90.00;;;;;;5014480;28;20485;-61
2022/03/16 09:42:03;;;;;;;32.28;20.20;;;15.70;90.20;;;;;;5010939;28;20399;-62
2022/03/16 09:44:30;;;;;;;28.92;20.25;;;15.70;90.10;;;;;;5024555;28;20192;-61
2022/03/16 09:46:57;;;;;;;31.40;20.45;;;15.60;90.10;;;;;;5032678;28;20053;-61
2022/03/16 09:49:23;;;;;;;30.13;19.90;;;15.80;88.00;;;;;;5028004;28;20100;-61
2022/03/16 09:51:50;;;;;;;32.03;20.83;;;16.10;87.40;;;;;;5027786;28;20391;-63
2022/03/16 09:54:16;;;;;;;28.00;19.55;;;15.80;90.10;;;;;;5032122;28;20049;-66
2022/03/16 09:56:43;;;;;;;29.70;20.73;;;;;;;;;;5030429;28;20068;-65
2022/03/16 09:59:10;;;;;;;33.78;20.30;;;15.90;90.00;;;;;;5031884;28;20060;-61
2022/03/16 10:01:36;;;;;;;29.77;19.50;;;16.00;87.80;;;;;;4989903;28;20145;-61
2022/03/16 10:04:06;;;;;;;25.90;18.13;;;16.00;90.00;;;;;;4968715;28;20484;-64
2022/03/16 10:06:35;;;;;;;33.20;19.90;;;16.10;87.70;;;;;;4986303;28;20047;-61
2022/03/16 10:15:10;;;;;;;32.30;18.88;;;16.10;89.80;;;;;;4991593;28;20057;-61
2022/03/16 10:17:43;;;;;;;27.40;18.77;;;16.00;87.30;;;;;;4993949;28;20050;-62
2022/03/16 10:20:23;;;;;;;30.23;19.00;;;16.30;87.40;;;;;;4976285;28;20082;-61
2022/03/16 10:23:05;;;;;;;29.80;18.83;;;16.30;86.10;;;;;;4993010;28;20050;-61
2022/03/16 10:25:36;;;;;;;27.45;18.27;;;16.20;89.90;;;;;;4991784;28;20054;-61
2022/03/16 10:28:11;;;;;;;29.30;18.08;;;16.20;90.20;;;;;;4997544;28;20175;-62
2022/03/16 10:31:05;;;;;;;28.30;17.10;;;16.10;87.20;;;;;;4996628;28;20394;-63
2022/03/16 10:33:44;;;;;;;26.45;19.05;;;16.30;89.70;;;;;;4994283;28;20054;-62
2022/03/16 10:36:13;;;;;;;24.25;17.27;;;16.00;87.10;;;;;;4993261;28;20072;-62
2022/03/16 10:38:49;;;;;;;26.75;17.83;;;16.20;89.60;;;;;;4991695;28;20048;-62
2022/03/16 10:46:53;;;;;;;29.92;18.00;;;16.40;89.40;;;;;;4992990;28;20129;-62
2022/03/16 10:49:26;;;;;;;28.90;17.45;;;16.50;86.70;;;;;;4997851;28;20137;-62
2022/03/16 10:52:05;;;;;;;;;;;16.40;86.40;;;;;;4994414;28;20097;-61
2022/03/16 10:54:35;;;;;;;28.25;17.13;;;16.50;88.90;;;;;;4997439;28;19930;-61
2022/03/16 10:57:02;;;;;;;27.40;17.52;;;16.20;88.60;;;;;;4989651;28;20062;-62
2022/03/16 10:59:30;;;;;;;30.67;17.35;;;16.20;86.00;;;;;;4977747;28;20082;-61
2022/03/16 11:02:05;;;;;;;22.85;16.10;;;16.40;85.80;;;;;;4990770;28;20416;-61
2022/03/16 11:04:32;;;;;;;25.08;16.90;;;16.40;86.10;;;;;;4979622;28;20113;-64
2022/03/16 11:06:59;;;;;;;28.27;17.75;;;16.50;88.60;;;;;;4995775;28;20073;-62
2022/03/16 11:09:25;;;;;;;27.35;17.02;;;16.40;88.40;;;;;;4997113;28;20043;-62
2022/03/16 11:14:36;;;;;;;23.92;16.45;;;16.40;88.20;;;;;;4991166;28;20114;-61
2022/03/16 11:17:03;;;;;;;26.92;16.50;;;16.10;88.10;;;;;;4994067;28;20043;-63
2022/03/16 11:19:28;;;;;;;25.63;16.70;;;16.40;88.30;;;;;;4993535;28;20054;-61
2022/03/16 11:22:15;;;;;;;26.77;15.82;;;;;;;;;;4979556;28;20034;-61
2022/03/16 11:24:44;;;;;;;23.45;15.85;;;16.70;88.20;;;;;;4991627;28;20038;-62
2022/03/16 11:27:12;;;;;;;23.92;15.73;;;16.60;88.00;;;;;;4959073;28;20061;-62
2022/03/16 11:30:11;;;;;;;27.67;14.95;;;16.40;84.00;;;;;;4963166;28;20046;-63
2022/03/16 11:32:38;;;;;;;26.60;15.48;;;16.50;87.80;;;;;;4966767;28;20102;-65
2022/03/16 11:35:07;;;;;;;21.73;14.68;;;16.80;85.40;;;;;;4980292;28;20038;-63
2022/03/16 11:37:54;;;;;;;24.73;14.13;;;16.70;87.70;;;;;;4989790;28;20404;-61
2022/03/16 11:40:24;;;;;;;32.10;14.93;;;16.80;87.70;;;;;;4995187;28;20081;-61
2022/03/16 11:43:08;;;;;;;20.55;13.85;;;16.70;87.60;;;;;;4985119;28;20058;-63
2022/03/16 11:45:43;;;;;;;22.60;13.75;;;16.90;87.90;;;;;;4993770;28;20079;-60
2022/03/16 11:48:34;;;;;;;20.85;13.55;;;16.90;84.90;;;;;;4990511;28;20053;-62
2022/03/16 11:53:47;;;;;;;21.02;13.27;;;16.80;83.30;;;;;;4994391;28;20053;-66
2022/03/16 11:56:39;;;;;;;20.50;12.23;;;16.60;86.90;;;;;;4994305;28;20050;-63
2022/03/16 11:59:18;;;;;;;20.97;12.73;;;16.90;87.30;;;;;;4977654;28;20082;-61
2022/03/16 12:01:52;;;;;;;21.75;12.07;;;17.10;87.10;;;;;;4981625;28;20332;-63
2022/03/16 12:04:38;;;;;;;21.40;12.75;;;16.70;82.70;;;;;;4976801;28;20050;-63
2022/03/16 12:07:10;;;;;;;21.08;12.40;;;17.00;86.70;;;;;;4980719;28;20039;-61
2022/03/16 12:09:54;;;;;;;19.65;11.60;;;17.00;84.00;;;;;;4994510;28;20042;-64
2022/03/16 12:15:25;;;;;;;19.15;12.25;;;16.80;86.20;;;;;;4959151;28;20110;-65
2022/03/16 12:17:56;;;;;;;19.42;11.25;;;17.00;86.10;;;;;;4990165;28;20122;-66
2022/03/16 12:20:30;;;;;;;17.70;10.50;;;17.00;81.60;;;;;;4988580;28;20050;-64
2022/03/16 12:23:02;;;;;;;19.73;10.35;;;17.40;85.90;;;;;;4985112;28;20057;-64
2022/03/16 12:25:32;;;;;;;18.30;10.85;;;17.20;85.60;;;;;;4976663;28;20050;-61
2022/03/16 12:30:54;;;;;;;15.52;10.05;;;17.10;85.30;;;;;;4986404;28;20054;-64
2022/03/16 12:33:28;;;;;;;16.73;11.02;;;17.00;85.30;;;;;;4995611;28;20042;-63
2022/03/16 12:35:54;;;;;;;15.05;9.50;;;17.50;85.40;;;;;;4994630;28;20042;-63
2022/03/16 12:38:21;;;;;;;14.50;9.88;;;17.40;85.30;;;;;;4995207;28;20506;-61
2022/03/16 12:43:32;;;;;;;16.33;9.00;;;17.30;81.50;;;;;;4986317;28;20101;-66
2022/03/16 12:46:04;;;;;;;14.82;9.23;;;17.40;82.10;;;;;;5003810;28;20448;-66
2022/03/16 12:48:33;;;;;;;18.05;9.40;;;17.50;84.80;;;;;;4997793;28;20041;-65
2022/03/16 12:51:00;;;;;;;16.45;9.13;;;17.50;82.40;;;;;;4995293;28;20046;-65
2022/03/16 12:53:46;;;;;;;14.68;8.98;;;17.50;84.70;;;;;;4996899;28;20440;-62
2022/03/16 12:56:18;;;;;;;15.13;9.20;;;17.50;81.80;;;;;;4975028;28;20057;-61
2022/03/16 12:58:56;;;;;;;15.73;8.77;;;17.10;84.20;;;;;;4942816;28;20489;-61
2022/03/16 13:01:22;;;;;;;12.40;8.32;;;17.50;84.30;;;;;;4990868;28;20070;-64
2022/03/16 13:03:59;;;;;;;15.70;8.30;;;17.60;84.40;;;;;;5010624;28;20041;-62
2022/03/16 13:06:25;;;;;;;16.17;8.35;;;17.60;81.40;;;;;;5014218;28;20046;-61
2022/03/16 13:08:52;;;;;;;14.55;8.80;;;17.10;83.90;;;;;;5014298;28;20046;-62
2022/03/16 13:11:25;;;;;;;14.98;9.77;;;17.10;83.70;;;;;;5014193;28;20081;-60
2022/03/16 13:14:07;;;;;;;13.82;8.43;;;;;;;;;;5021611;28;20037;-61
2022/03/16 13:16:36;;;;;;;15.80;8.52;;;17.40;84.50;;;;;;5033920;28;20069;-61
2022/03/16 13:19:06;;;;;;;13.18;8.93;;;;;;;;;;5013660;28;20062;-64
2022/03/16 13:21:34;;;;;;;15.95;8.98;;;17.40;83.60;;;;;;4996847;28;20057;-62